메인 페이지
METAR-TAF:

METAR-TAF

공항 :

스리나가르, 인도

위도: 33-59-14N, 경도: 074-46-27E, 고도: 1655m

현재 날씨관측

예보는 1 시간 26분 전, 19:30시(UTC)에 발표되었습니다.
남남동4kt
온도 10°C
습도 100%
기압 1024 hPa
시정: 5000m
고도 2000ft 상공 구름 보통
고도 3000ft 상공 구름 조금, 타워링 적운.
고도 9000ft 상공 구름 많음
약한비

METAR: VISR 251930Z 16004KT 5000 -RA SCT020 FEW030TCU BKN090 10/10 Q1024 NOSIG

시각: 02:26 (20:56 UTC)

예보

예보는 11 시간 26분 전, 09:30시(UTC)에 발표되었습니다.
예보 대상 시간: 25일 12시부터 25일 24시까지 (UTC)
서남서5kt
시정: 6000m
고도 2000ft 상공 구름 보통
고도 8000ft 상공 구름 많음
일시적
25일 12시부터 25일 15시까지 (UTC)
고도 1500ft 상공 구름 보통
고도 10000ft 상공 구름 많음
약한비
일시적
25일 15시부터 25일 18시까지 (UTC)
고도 2000ft 상공 구름 조금
고도 3000ft 상공 구름 조금, 적란운.
고도 8000ft 상공 구름 보통
전환 중
시부터 시까지 (UTC)
25일 2300시부터 (UTC)
약한비

TAF: VISR 250930Z 2512/2524 24005KT 6000 SCT020 BKN080 TEMPO 2512/2515 -RA SCT015 BKN100 TEMPO 2515/2518 FEW020 FEW030CB SCT080 BECMG FM252300 -RA

4,000개 이상의 공항 관측 자료 및 예보 (METAR 및 TAF 보고).

지도상에서 검색 가능한 기상관측소가 노란 점과 빨간 점으로 표시되어 있습니다.

기상관측소 명을 보려면 표시 위로 마우스를 이동하세요.

날씨 관측과 예보를 보려면 클릭하세요.

지도 변경 : 확대하려면 엑스 표시가 있는 녹색 버튼, 축소하려면 빼기 표시가 있는 녹색 버튼, 다음 페이지의 지도를 보려면 녹색 화살표를 클릭하세요.


METAR-TAF: